Time;durP1;ratioP1;P1;durP2;ratioP2;P2;SDS_P1;SDS_P2;PMS_P1;PMS_P2;Temp;Humidity;BMP_temperature;BMP_pressure;BME280_temperature;BME280_humidity;BME280_pressure;Samples;Min_cycle;Max_cycle;Signal;HPM_P1;HPM_P2
2021/03/24 00:00:58;;;;;;;;;;;;;;;;;;5088131;28;897;-62
2021/03/24 00:03:24;;;;;;;;;;;;;;;;;;5089282;28;1114;-61
2021/03/24 00:05:50;;;;;;;;;;;;;;;;;;5089556;28;1019;-61
2021/03/24 00:08:17;;;;;;;;;;;;;;;;;;5089335;28;859;-62
2021/03/24 00:10:42;;;;;;;;;;;;;;;;;;5086846;28;1910;-62
2021/03/24 00:13:08;;;;;;;;;;;;;;;;;;5075385;28;1429;-62
2021/03/24 00:15:34;;;;;;;;;;;;;;;;;;5069195;28;834;-62
2021/03/24 00:17:59;;;;;;;;;;;;;;;;;;5068686;28;890;-61
2021/03/24 00:20:27;;;;;;;;;;;;;;;;;;5068731;28;798;-62
2021/03/24 00:22:52;;;;;;;;;;;;;;;;;;5068773;28;823;-61
2021/03/24 00:25:18;;;;;;;;;;;;;;;;;;5068225;28;893;-61
2021/03/24 00:27:44;;;;;;;;;;;;;;;;;;5068316;28;831;-61
2021/03/24 00:30:11;;;;;;;;;;;;;;;;;;5068847;28;1898;-62
2021/03/24 00:32:36;;;;;;;;;;;;;;;;;;5068811;28;1012;-61
2021/03/24 00:35:01;;;;;;;;;;;;;;;;;;5068229;28;922;-62
2021/03/24 00:37:27;;;;;;;;;;;;;;;;;;5068443;28;888;-62
2021/03/24 00:39:52;;;;;;;;;;;;;;;;;;5068240;28;890;-62
2021/03/24 00:42:17;;;;;;;;;;;;;;;;;;5068390;28;910;-62
2021/03/24 00:44:43;;;;;;;;;;;;;;;;;;5068423;28;839;-61
2021/03/24 00:47:08;;;;;;;;;;;;;;;;;;5066785;28;1594;-62
2021/03/24 00:49:34;;;;;;;;;;;;;;;;;;5047782;28;903;-62
2021/03/24 00:51:59;;;;;;;;;;;;;;;;;;5049445;28;1910;-61
2021/03/24 00:54:24;;;;;;;;;;;;;;;;;;5079344;28;1084;-62
2021/03/24 00:56:50;;;;;;;;;;;;;;;;;;5082758;28;1096;-62
2021/03/24 00:59:15;;;;;;;;;;;;;;;;;;5065506;28;941;-62
2021/03/24 01:01:41;;;;;;;;;;;;;;;;;;5048023;28;831;-62
2021/03/24 01:04:07;;;;;;;;;;;;;;;;;;5049000;28;954;-62
2021/03/24 01:06:33;;;;;;;;;;;;;;;;;;5049922;28;803;-62
2021/03/24 01:08:58;;;;;;;;;;;;;;;;;;5067363;28;850;-61
2021/03/24 01:11:24;;;;;;;;;;;;;;;;;;5067972;28;1999;-62
2021/03/24 01:13:49;;;;;;;;;;;;;;;;;;5067771;28;870;-61
2021/03/24 01:16:15;;;;;;;;;;;;;;;;;;5067671;28;977;-62
2021/03/24 01:18:40;;;;;;;;;;;;;;;;;;5067984;28;843;-62
2021/03/24 01:21:05;;;;;;;;;;;;;;;;;;5068657;28;906;-62
2021/03/24 01:23:31;;;;;;;;;;;;;;;;;;5048308;28;835;-62
2021/03/24 01:25:56;;;;;;;;;;;;;;;;;;5047380;28;842;-62
2021/03/24 01:28:26;;;;;;;;;;;;;;;;;;5047741;28;981;-61
2021/03/24 01:30:55;;;;;;;;;;;;;;;;;;5047304;28;1969;-62
2021/03/24 01:33:20;;;;;;;;;;;;;;;;;;5046469;28;784;-62
2021/03/24 01:35:46;;;;;;;;;;;;;;;;;;5047271;28;867;-62
2021/03/24 01:38:12;;;;;;;;;;;;;;;;;;5061273;28;784;-62
2021/03/24 01:40:41;;;;;;;;;;;;;;;;;;5067461;28;875;-61
2021/03/24 01:43:17;;;;;;;;;;;;;;;;;;5067587;28;823;-61
2021/03/24 01:46:06;;;;;;;;;;;;;;;;;;5067291;28;831;-61
2021/03/24 01:48:32;;;;;;;;;;;;;;;;;;5056341;28;1148;-61
2021/03/24 01:50:57;;;;;;;;;;;;;;;;;;5067233;28;1930;-62
2021/03/24 01:53:22;;;;;;;;;;;;;;;;;;5073476;28;1087;-62
2021/03/24 01:55:48;;;;;;;;;;;;;;;;;;5078697;28;2194;-62
2021/03/24 01:58:13;;;;;;;;;;;;;;;;;;5055583;28;1132;-62
2021/03/24 02:00:44;;;;;;;;;;;;;;;;;;5067627;28;1056;-62
2021/03/24 02:03:10;;;;;;;;;;;;;;;;;;5067988;28;874;-62
2021/03/24 02:05:35;;;;;;;;;;;;;;;;;;5069551;28;1224;-63
2021/03/24 02:08:08;;;;;;;;;;;;;;;;;;5066316;28;866;-62
2021/03/24 02:10:36;;;;;;;;;;;;;;;;;;5066628;28;1905;-63
2021/03/24 02:13:06;;;;;;;;;;;;;;;;;;5066587;28;878;-62
2021/03/24 02:15:37;;;;;;;;;;;;;;;;;;5066647;28;886;-62
2021/03/24 02:18:03;;;;;;;;;;;;;;;;;;5066917;28;815;-63
2021/03/24 02:20:35;;;;;;;;;;;;;;;;;;5066436;28;866;-62
2021/03/24 02:23:23;;;;;;;;;;;;;;;;;;5066820;28;886;-63
2021/03/24 02:25:53;;;;;;;;;;;;;;;;;;5066330;28;1201;-63
2021/03/24 02:28:19;;;;;;;;;;;;;;;;;;5066834;28;799;-63
2021/03/24 02:30:46;;;;;;;;;;;;;;;;;;5066555;28;1889;-62
2021/03/24 02:33:13;;;;;;;;;;;;;;;;;;5066920;28;890;-63
2021/03/24 02:35:42;;;;;;;;;;;;;;;;;;5067978;28;894;-63
2021/03/24 02:38:08;;;;;;;;;;;;;;;;;;5067475;28;807;-63
2021/03/24 02:40:34;;;;;;;;;;;;;;;;;;5066672;28;1096;-63
2021/03/24 02:43:01;;;;;;;;;;;;;;;;;;5067331;28;842;-61
2021/03/24 02:45:31;;;;;;;;;;;;;;;;;;5068453;28;811;-62
2021/03/24 02:47:58;;;;;;;;;;;;;;;;;;5070503;28;926;-61
2021/03/24 02:50:25;;;;;;;;;;;;;;;;;;5070314;28;1914;-61
2021/03/24 02:52:50;;;;;;;;;;;;;;;;;;5072116;28;1099;-62
2021/03/24 02:55:16;;;;;;;;;;;;;;;;;;5090646;28;870;-62
2021/03/24 02:57:42;;;;;;;;;;;;;;;;;;5081935;28;1241;-61
2021/03/24 03:00:10;;;;;;;;;;;;;;;;;;5069615;28;945;-61
2021/03/24 03:02:39;;;;;;;;;;;;;;;;;;5071545;28;1028;-62
2021/03/24 03:05:06;;;;;;;;;;;;;;;;;;5070606;28;895;-62
2021/03/24 03:07:36;;;;;;;;;;;;;;;;;;5070234;28;882;-61
2021/03/24 03:10:10;;;;;;;;;;;;;;;;;;5070188;28;1910;-62
2021/03/24 03:12:43;;;;;;;;;;;;;;;;;;5070808;28;835;-62
2021/03/24 03:15:37;;;;;;;;;;;;;;;;;;5070605;28;895;-61
2021/03/24 03:18:08;;;;;;;;;;;;;;;;;;5064105;28;1274;-61
2021/03/24 03:20:35;;;;;;;;;;;;;;;;;;5070012;28;906;-61
2021/03/24 03:23:21;;;;;;;;;;;;;;;;;;5069997;28;886;-62
2021/03/24 03:25:51;;;;;;;;;;;;;;;;;;5070055;28;1224;-62
2021/03/24 03:28:17;;;;;;;;;;;;;;;;;;5069682;28;943;-61
2021/03/24 03:30:46;;;;;;;;;;;;;;;;;;5068210;28;1971;-62
2021/03/24 03:33:12;;;;;;;;;;;;;;;;;;5067862;28;827;-62
2021/03/24 03:35:38;;;;;;;;;;;;;;;;;;5069862;28;804;-61
2021/03/24 03:38:05;;;;;;;;;;;;;;;;;;5069513;28;811;-61
2021/03/24 03:40:32;;;;;;;;;;;;;;;;;;5069488;28;918;-61
2021/03/24 03:42:58;;;;;;;;;;;;;;;;;;5069629;28;878;-62
2021/03/24 03:45:24;;;;;;;;;;;;;;;;;;5068035;28;797;-61
2021/03/24 03:47:50;;;;;;;;;;;;;;;;;;5069191;28;910;-61
2021/03/24 03:50:20;;;;;;;;;;;;;;;;;;5069741;28;1897;-61
2021/03/24 03:52:51;;;;;;;;;;;;;;;;;;5070245;28;1083;-62
2021/03/24 03:55:28;;;;;;;;;;;;;;;;;;5089136;28;843;-61
2021/03/24 03:57:54;;;;;;;;;;;;;;;;;;5092036;28;878;-61
2021/03/24 04:00:28;;;;;;;;;;;;;;;;;;5089191;28;830;-61
2021/03/24 04:03:00;;;;;;;;;;;;;;;;;;5089368;28;798;-61
2021/03/24 04:05:32;;;;;;;;;;;;;;;;;;5089409;28;684;-61
2021/03/24 04:08:08;;;;;;;;;;;;;;;;;;5089451;28;971;-61
2021/03/24 04:10:35;;;;;;;;;;;;;;;;;;5089283;28;1905;-61
2021/03/24 04:13:01;;;;;;;;;;;;;;;;;;5088289;28;1109;-61
2021/03/24 04:15:29;;;;;;;;;;;;;;;;;;5071300;28;1034;-61
2021/03/24 04:17:57;;;;;;;;;;;;;;;;;;5068898;28;878;-61
2021/03/24 04:20:24;;;;;;;;;;;;;;;;;;5068554;28;788;-61
2021/03/24 04:22:51;;;;;;;;;;;;;;;;;;5068509;28;886;-61
2021/03/24 04:25:23;;;;;;;;;;;;;;;;;;5057317;28;914;-61
2021/03/24 04:27:49;;;;;;;;;;;;;;;;;;5048299;28;886;-61
2021/03/24 04:30:16;;;;;;;;;;;;;;;;;;5048169;28;1893;-61
2021/03/24 04:32:41;;;;;;;;;;;;;;;;;;5047728;28;856;-62
2021/03/24 04:35:07;;;;;;;;;;;;;;;;;;5049367;28;887;-61
2021/03/24 04:37:46;;;;;;;;;;;;;;;;;;5048445;28;831;-62
2021/03/24 04:40:17;;;;;;;;;;;;;;;;;;5048627;28;835;-62
2021/03/24 04:42:46;;;;;;;;;;;;;;;;;;5048047;28;901;-61
2021/03/24 04:45:14;;;;;;;;;;;;;;;;;;5047990;28;819;-62
2021/03/24 04:47:41;;;;;;;;;;;;;;;;;;5069852;28;1195;-61
2021/03/24 04:50:14;;;;;;;;;;;;;;;;;;5068887;28;1886;-61
2021/03/24 04:52:41;;;;;;;;;;;;;;;;;;5069284;28;1074;-61
2021/03/24 04:55:08;;;;;;;;;;;;;;;;;;5088928;28;878;-61
2021/03/24 04:57:34;;;;;;;;;;;;;;;;;;5088410;28;859;-61
2021/03/24 05:00:04;;;;;;;;;;;;;;;;;;5090205;28;925;-60
2021/03/24 05:02:33;;;;;;;;;;;;;;;;;;5088118;28;875;-61
2021/03/24 05:04:59;;;;;;;;;;;;;;;;;;5087144;28;1069;-61
2021/03/24 05:07:27;;;;;;;;;;;;;;;;;;5087391;28;815;-61
2021/03/24 05:09:52;;;;;;;;;;;;;;;;;;5087958;28;1959;-62
2021/03/24 05:12:25;;;;;;;;;;;;;;;;;;5088178;28;890;-62
2021/03/24 05:15:00;;;;;;;;;;;;;;;;;;5088269;28;890;-63
2021/03/24 05:17:30;;;;;;;;;;;;;;;;;;5087572;28;866;-62
2021/03/24 05:20:21;;;;;;;;;;;;;;;;;;5087323;28;835;-62
2021/03/24 05:22:47;;;;;;;;;;;;;;;;;;5085297;28;1235;-63
2021/03/24 05:25:12;;;;;;;;;;;;;;;;;;5087181;28;822;-62
2021/03/24 05:27:51;;;;;;;;;;;;;;;;;;5088672;28;791;-62
2021/03/24 05:30:22;;;;;;;;;;;;;;;;;;5088108;28;1964;-62
2021/03/24 05:32:49;;;;;;;;;;;;;;;;;;5069899;28;1210;-63
2021/03/24 05:35:23;;;;;;;;;;;;;;;;;;5067153;28;855;-62
2021/03/24 05:37:49;;;;;;;;;;;;;;;;;;5067145;28;831;-61
2021/03/24 05:40:38;;;;;;;;;;;;;;;;;;5063253;28;1595;-62
2021/03/24 05:43:17;;;;;;;;;;;;;;;;;;5058495;28;1706;-62
2021/03/24 05:45:57;;;;;;;;;;;;;;;;;;5056102;28;870;-63
2021/03/24 05:48:32;;;;;;;;;;;;;;;;;;5053371;28;1625;-63
2021/03/24 05:51:07;;;;;;;;;;;;;;;;;;5066912;28;1893;-63
2021/03/24 05:53:41;;;;;;;;;;;;;;;;;;5073860;28;1134;-63
2021/03/24 05:56:25;;;;;;;;;;;;;;;;;;5088178;28;902;-64
2021/03/24 05:58:51;;;;;;;;;;;;;;;;;;5085729;28;1330;-61
2021/03/24 06:01:28;;;;;;;;;;;;;;;;;;5086832;28;851;-61
2021/03/24 06:04:15;;;;;;;;;;;;;;;;;;5087723;28;898;-61
2021/03/24 06:06:40;;;;;;;;;;;;;;;;;;5088102;28;885;-61
2021/03/24 06:09:24;;;;;;;;;;;;;;;;;;5087106;28;968;-61
2021/03/24 06:12:08;;;;;;;;;;;;;;;;;;5087756;28;1972;-61
2021/03/24 06:14:36;;;;;;;;;;;;;;;;;;5087082;28;867;-61
2021/03/24 06:17:01;;;;;;;;;;;;;;;;;;5086994;28;826;-62
2021/03/24 06:19:41;;;;;;;;;;;;;;;;;;5081964;28;835;-61
2021/03/24 06:22:26;;;;;;;;;;;;;;;;;;5072514;28;1003;-61
2021/03/24 06:25:09;;;;;;;;;;;;;;;;;;5050649;28;800;-61
2021/03/24 06:27:48;;;;;;;;;;;;;;;;;;5073707;28;1159;-61
2021/03/24 06:30:13;;;;;;;;;;;;;;;;;;5091036;28;1918;-62
2021/03/24 06:32:53;;;;;;;;;;;;;;;;;;5091864;28;811;-61
2021/03/24 06:35:21;;;;;;;;;;;;;;;;;;5090056;28;883;-62
2021/03/24 06:38:09;;;;;;;;;;;;;;;;;;5091235;28;875;-61
2021/03/24 06:40:35;;;;;;;;;;;;;;;;;;5073940;28;1621;-60
2021/03/24 06:43:00;;;;;;;;;;;;;;;;;;5057748;28;822;-60
2021/03/24 06:45:34;;;;;;;;;;;;;;;;;;5050341;28;902;-61
2021/03/24 06:48:00;;;;;;;;;;;;;;;;;;5050539;28;871;-62
2021/03/24 06:51:00;;;;;;;;;;;;;;;;;;5050126;28;1894;-61
2021/03/24 06:53:28;;;;;;;;;;;;;;;;;;5064340;28;1150;-60
2021/03/24 06:56:13;;;;;;;;;;;;;;;;;;5073897;28;1728;-61
2021/03/24 06:58:57;;;;;;;;;;;;;;;;;;5078817;28;1509;-62
2021/03/24 07:01:28;;;;;;;;;;;;;;;;;;5073878;28;1409;-61
2021/03/24 07:04:07;;;;;;;;;;;;;;;;;;5089116;28;1250;-61
2021/03/24 07:06:41;;;;;;;;;;;;;;;;;;5050140;28;910;-61
2021/03/24 07:09:07;;;;;;;;;;;;;;;;;;5050970;28;823;-61
2021/03/24 07:11:32;;;;;;;;;;;;;;;;;;5049835;28;1980;-61
2021/03/24 07:14:16;;;;;;;;;;;;;;;;;;5060511;28;1719;-61
2021/03/24 07:17:02;;;;;;;;;;;;;;;;;;5078807;28;1139;-62
2021/03/24 07:19:28;;;;;;;;;;;;;;;;;;5052496;28;1268;-61
2021/03/24 07:21:53;;;;;;;;;;;;;;;;;;5066759;28;1348;-63
2021/03/24 07:24:46;;;;;;;;;;;;;;;;;;5068165;28;1482;-62
2021/03/24 07:27:21;;;;;;;;;;;;;;;;;;5067835;28;1268;-62
2021/03/24 07:29:56;;;;;;;;;;;;;;;;;;5050599;28;1601;-63
2021/03/24 07:32:35;;;;;;;;;;;;;;;;;;5076425;28;1890;-61
2021/03/24 07:35:17;;;;;;;;;;;;;;;;;;5077542;28;1098;-61
2021/03/24 07:38:06;;;;;;;;;;;;;;;;;;5075826;28;1079;-62
2021/03/24 07:40:50;;;;;;;;;;;;;;;;;;5075416;28;1241;-61
2021/03/24 07:43:34;;;;;;;;;;;;;;;;;;5070459;28;1036;-62
2021/03/24 07:46:15;;;;;;;;;;;;;;;;;;5071858;28;1230;-61
2021/03/24 07:48:59;;;;;;;;;;;;;;;;;;5079804;28;1171;-61
2021/03/24 07:51:24;;;;;;;;;;;;;;;;;;5077738;28;1965;-61
2021/03/24 07:53:49;;;;;;;;;;;;;;;;;;5079085;28;1066;-61
2021/03/24 07:56:19;;;;;;;;;;;;;;;;;;5089543;28;881;-61
2021/03/24 07:59:09;;;;;;;;;;;;;;;;;;5083167;28;1221;-62
2021/03/24 08:01:53;;;;;;;;;;;;;;;;;;5048881;28;784;-62
2021/03/24 08:04:37;;;;;;;;;;;;;;;;;;5053719;28;1727;-61
2021/03/24 08:07:11;;;;;;;;;;;;;;;;;;5068712;28;1395;-62
2021/03/24 08:09:55;;;;;;;;;;;;;;;;;;5069911;28;1356;-62
2021/03/24 08:12:35;;;;;;;;;;;;;;;;;;5071066;28;1902;-63
2021/03/24 08:15:18;;;;;;;;;;;;;;;;;;5068593;28;835;-62
2021/03/24 08:17:43;;;;;;;;;;;;;;;;;;5069358;28;823;-61
2021/03/24 08:20:18;;;;;;;;;;;;;;;;;;5069601;28;827;-61
2021/03/24 08:23:00;;;;;;;;;;;;;;;;;;5068744;28;874;-61
2021/03/24 08:25:32;;;;;;;;;;;;;;;;;;5070449;28;1050;-62
2021/03/24 08:28:05;;;;;;;;;;;;;;;;;;5068483;28;1098;-64
2021/03/24 08:30:48;;;;;;;;;;;;;;;;;;5068403;28;1953;-63
2021/03/24 08:33:13;;;;;;;;;;;;;;;;;;5079396;28;1318;-63
2021/03/24 08:36:00;;;;;;;;;;;;;;;;;;5071571;28;1163;-62
2021/03/24 08:38:31;;;;;;;;;;;;;;;;;;5067489;28;1273;-63
2021/03/24 08:41:04;;;;;;;;;;;;;;;;;;5081675;28;1147;-64
2021/03/24 08:43:46;;;;;;;;;;;;;;;;;;5079210;28;1242;-63
2021/03/24 08:46:18;;;;;;;;;;;;;;;;;;5088189;28;890;-62
2021/03/24 08:48:46;;;;;;;;;;;;;;;;;;5087882;28;815;-67
2021/03/24 08:51:11;;;;;;;;;;;;;;;;;;5080722;28;1886;-68
2021/03/24 08:53:45;;;;;;;;;;;;;;;;;;5084475;28;1154;-67
2021/03/24 08:56:29;;;;;;;;;;;;;;;;;;5083584;28;1036;-67
2021/03/24 08:59:03;;;;;;;;;;;;;;;;;;5068729;28;1140;-66
2021/03/24 09:01:44;;;;;;;;;;;;;;;;;;5067315;28;1079;-66
2021/03/24 09:04:12;;;;;;;;;;;;;;;;;;5064133;28;1496;-66
2021/03/24 09:06:38;;;;;;;;;;;;;;;;;;5064649;28;1240;-68
2021/03/24 09:09:22;;;;;;;;;;;;;;;;;;5067768;28;1151;-66
2021/03/24 09:11:54;;;;;;;;;;;;;;;;;;5067297;28;1898;-66
2021/03/24 09:14:37;;;;;;;;;;;;;;;;;;5067662;28;1150;-66
2021/03/24 09:17:15;;;;;;;;;;;;;;;;;;5067333;28;1372;-65
2021/03/24 09:19:59;;;;;;;;;;;;;;;;;;5043993;28;1491;-66
2021/03/24 09:22:27;;;;;;;;;;;;;;;;;;5061791;28;1203;-67
2021/03/24 09:25:12;;;;;;;;;;;;;;;;;;5064639;28;1217;-67
2021/03/24 09:27:53;;;;;;;;;;;;;;;;;;5067575;28;1179;-67
2021/03/24 09:30:30;;;;;;;;;;;;;;;;;;5066839;28;1979;-67
2021/03/24 09:33:07;;;;;;;;;;;;;;;;;;5067346;28;1190;-68
2021/03/24 09:35:38;;;;;;;;;;;;;;;;;;5066849;28;1174;-69
2021/03/24 09:38:08;;;;;;;;;;;;;;;;;;5063530;28;1329;-68
2021/03/24 09:40:40;;;;;;;;;;;;;;;;;;5067459;28;1154;-68
2021/03/24 09:43:17;;;;;;;;;;;;;;;;;;5067353;28;826;-69
2021/03/24 09:45:43;;;;;;;;;;;;;;;;;;5049477;28;1023;-68
2021/03/24 09:48:14;;;;;;;;;;;;;;;;;;5068637;28;818;-68
2021/03/24 09:50:39;;;;;;;;;;;;;;;;;;5068214;28;1952;-67
2021/03/24 09:53:08;;;;;;;;;;;;;;;;;;5066935;28;1214;-67
2021/03/24 09:55:37;;;;;;;;;;;;;;;;;;5048784;28;1350;-67
2021/03/24 09:58:13;;;;;;;;;;;;;;;;;;5049429;28;1246;-66
2021/03/24 10:00:41;;;;;;;;;;;;;;;;;;5067705;28;1198;-66
2021/03/24 10:03:15;;;;;;;;;;;;;;;;;;5067228;28;1214;-66
2021/03/24 10:05:46;;;;;;;;;;;;;;;;;;5051873;28;1595;-65
2021/03/24 10:08:14;;;;;;;;;;;;;;;;;;5049056;28;1056;-68
2021/03/24 10:10:43;;;;;;;;;;;;;;;;;;5065033;28;1984;-67
2021/03/24 10:13:25;;;;;;;;;;;;;;;;;;5067181;28;1146;-67
2021/03/24 10:15:53;;;;;;;;;;;;;;;;;;5059129;28;1133;-67
2021/03/24 10:18:37;;;;;;;;;;;;;;;;;;5052393;28;1849;-68
2021/03/24 10:21:03;;;;;;;;;;;;;;;;;;5049845;28;1058;-67
2021/03/24 10:23:35;;;;;;;;;;;;;;;;;;5066455;28;1202;-68
2021/03/24 10:26:20;;;;;;;;;;;;;;;;;;5056425;28;1103;-70
2021/03/24 10:29:00;;;;;;;;;;;;;;;;;;5061137;28;1141;-66
2021/03/24 10:31:35;;;;;;;;;;;;;;;;;;5061727;28;1969;-67
2021/03/24 10:34:10;;;;;;;;;;;;;;;;;;5066011;28;1017;-66
2021/03/24 10:36:43;;;;;;;;;;;;;;;;;;5055128;28;1372;-66
2021/03/24 10:39:15;;;;;;;;;;;;;;;;;;5047897;28;1080;-65
2021/03/24 10:41:44;;;;;;;;;;;;;;;;;;5064676;28;1171;-66
2021/03/24 10:44:19;;;;;;;;;;;;;;;;;;5051813;28;1269;-66
2021/03/24 10:47:02;;;;;;;;;;;;;;;;;;5054772;28;1179;-67
2021/03/24 10:49:46;;;;;;;;;;;;;;;;;;5066422;28;917;-66
2021/03/24 10:52:17;;;;;;;;;;;;;;;;;;5060620;28;1909;-66
2021/03/24 10:54:43;;;;;;;;;;;;;;;;;;5049072;28;1012;-66
2021/03/24 10:57:22;;;;;;;;;;;;;;;;;;5066766;28;1155;-66
2021/03/24 10:59:57;;;;;;;;;;;;;;;;;;5076014;28;922;-66
2021/03/24 11:02:51;;;;;;;;;;;;;;;;;;5086267;28;1055;-65
2021/03/24 11:05:20;;;;;;;;;;;;;;;;;;5067709;28;1665;-66
2021/03/24 11:07:50;;;;;;;;;;;;;;;;;;5069881;28;906;-66
2021/03/24 11:10:29;;;;;;;;;;;;;;;;;;5072108;28;1983;-66
2021/03/24 11:13:09;;;;;;;;;;;;;;;;;;5070098;28;819;-66
2021/03/24 11:15:37;;;;;;;;;;;;;;;;;;5069855;28;858;-65
2021/03/24 11:18:06;;;;;;;;;;;;;;;;;;5068949;28;959;-68
2021/03/24 11:20:46;;;;;;;;;;;;;;;;;;5070310;28;834;-68
2021/03/24 11:23:20;;;;;;;;;;;;;;;;;;5069190;28;859;-68
2021/03/24 11:25:57;;;;;;;;;;;;;;;;;;5071758;28;1088;-66
2021/03/24 11:28:43;;;;;;;;;;;;;;;;;;5070081;28;838;-67
2021/03/24 11:31:12;;;;;;;;;;;;;;;;;;5069973;28;1952;-66
2021/03/24 11:33:46;;;;;;;;;;;;;;;;;;5069977;28;827;-67
2021/03/24 11:36:21;;;;;;;;;;;;;;;;;;5069461;28;831;-67
2021/03/24 11:38:59;;;;;;;;;;;;;;;;;;5068595;28;833;-67
2021/03/24 11:41:26;;;;;;;;;;;;;;;;;;5063231;28;1906;-66
2021/03/24 11:44:00;;;;;;;;;;;;;;;;;;5056656;28;917;-67
2021/03/24 11:46:51;;;;;;;;;;;;;;;;;;5059924;28;1301;-65
2021/03/24 11:49:19;;;;;;;;;;;;;;;;;;5068400;28;922;-66
2021/03/24 11:52:00;;;;;;;;;;;;;;;;;;5070240;28;1921;-65
2021/03/24 11:54:36;;;;;;;;;;;;;;;;;;5077392;28;1226;-64
2021/03/24 11:57:10;;;;;;;;;;;;;;;;;;5071261;28;1324;-66
2021/03/24 11:59:44;;;;;;;;;;;;;;;;;;5072305;28;1296;-65
2021/03/24 12:02:15;;;;;;;;;;;;;;;;;;5068167;28;1155;-66
2021/03/24 12:05:10;;;;;;;;;;;;;;;;;;5071287;28;1549;-66
2021/03/24 12:08:02;;;;;;;;;;;;;;;;;;5042216;28;1274;-65
2021/03/24 12:10:29;;;;;;;;;;;;;;;;;;5046748;28;1894;-66
2021/03/24 12:13:13;;;;;;;;;;;;;;;;;;5048675;28;836;-67
2021/03/24 12:15:40;;;;;;;;;;;;;;;;;;5066069;28;1226;-66
2021/03/24 12:18:14;;;;;;;;;;;;;;;;;;5067720;28;1352;-67
2021/03/24 12:20:58;;;;;;;;;;;;;;;;;;5067994;28;847;-67
2021/03/24 12:23:25;;;;;;;;;;;;;;;;;;5068356;28;1217;-67
2021/03/24 12:25:52;;;;;;;;;;;;;;;;;;5068894;28;1019;-68
2021/03/24 12:28:27;;;;;;;;;;;;;;;;;;5070840;28;1168;-67
2021/03/24 12:31:01;;;;;;;;;;;;;;;;;;5068482;28;1910;-64
2021/03/24 12:33:27;;;;;;;;;;;;;;;;;;5068607;28;1010;-64
2021/03/24 12:36:14;;;;;;;;;;;;;;;;;;5068379;28;1355;-64
2021/03/24 12:39:00;;;;;;;;;;;;;;;;;;5068377;28;878;-64
2021/03/24 12:41:31;;;;;;;;;;;;;;;;;;5067856;28;1482;-64
2021/03/24 12:44:05;;;;;;;;;;;;;;;;;;5068505;28;1273;-64
2021/03/24 12:46:31;;;;;;;;;;;;;;;;;;5068606;28;823;-65
2021/03/24 12:48:58;;;;;;;;;;;;;;;;;;5067828;28;1588;-64
2021/03/24 12:51:39;;;;;;;;;;;;;;;;;;5068698;28;1969;-64
2021/03/24 12:54:10;;;;;;;;;;;;;;;;;;5080018;28;1177;-64
2021/03/24 12:56:44;;;;;;;;;;;;;;;;;;5088442;28;783;-64
2021/03/24 12:59:25;;;;;;;;;;;;;;;;;;5089411;28;929;-65
2021/03/24 13:02:09;;;;;;;;;;;;;;;;;;5067494;28;1233;-64
2021/03/24 13:04:53;;;;;;;;;;;;;;;;;;5067887;28;1640;-64
2021/03/24 13:07:37;;;;;;;;;;;;;;;;;;5067907;28;1051;-64
2021/03/24 13:10:21;;;;;;;;;;;;;;;;;;5068106;28;1356;-65
2021/03/24 13:12:46;;;;;;;;;;;;;;;;;;5067586;28;815;-64
2021/03/24 13:15:20;;;;;;;;;;;;;;;;;;5067229;28;1387;-65
2021/03/24 13:17:54;;;;;;;;;;;;;;;;;;5068112;28;906;-65
2021/03/24 13:20:19;;;;;;;;;;;;;;;;;;5067775;28;1273;-64
2021/03/24 13:22:55;;;;;;;;;;;;;;;;;;5068057;28;854;-64
2021/03/24 13:25:23;;;;;;;;;;;;;;;;;;5068117;28;1407;-65
2021/03/24 13:27:48;;;;;;;;;;;;;;;;;;5057301;28;1862;-64
2021/03/24 13:30:25;;;;;;;;;;;;;;;;;;5064577;28;1902;-64
2021/03/24 13:33:08;;;;;;;;;;;;;;;;;;5066292;28;882;-64
2021/03/24 13:35:40;;;;;;;;;;;;;;;;;;5067131;28;1265;-64
2021/03/24 13:38:18;;;;;;;;;;;;;;;;;;5067405;28;1092;-64
2021/03/24 13:40:44;;;;;;;;;;;;;;;;;;5067668;28;1351;-65
2021/03/24 13:43:09;;;;;;;;;;;;;;;;;;5068147;28;807;-64
2021/03/24 13:45:47;;;;;;;;;;;;;;;;;;5066372;28;1359;-64
2021/03/24 13:48:14;;;;;;;;;;;;;;;;;;5066686;28;942;-64
2021/03/24 13:50:42;;;;;;;;;;;;;;;;;;5068014;28;1925;-64
2021/03/24 13:53:22;;;;;;;;;;;;;;;;;;5072255;28;1169;-64
2021/03/24 13:56:07;;;;;;;;;;;;;;;;;;5079259;28;1209;-64
2021/03/24 13:58:41;;;;;;;;;;;;;;;;;;5066317;28;1323;-64
2021/03/24 14:01:11;;;;;;;;;;;;;;;;;;5067841;28;1372;-64
2021/03/24 14:03:39;;;;;;;;;;;;;;;;;;5068005;28;831;-64
2021/03/24 14:06:22;;;;;;;;;;;;;;;;;;5067318;28;1549;-64
2021/03/24 14:08:48;;;;;;;;;;;;;;;;;;5067146;28;863;-64
2021/03/24 14:11:16;;;;;;;;;;;;;;;;;;5066747;28;1983;-65
2021/03/24 14:13:44;;;;;;;;;;;;;;;;;;5066109;28;1435;-65
2021/03/24 14:16:13;;;;;;;;;;;;;;;;;;5067956;28;1438;-64
2021/03/24 14:18:57;;;;;;;;;;;;;;;;;;5066345;28;1304;-64
2021/03/24 14:21:35;;;;;;;;;;;;;;;;;;5065311;28;1384;-63
2021/03/24 14:24:01;;;;;;;;;;;;;;;;;;5067259;28;1087;-64
2021/03/24 14:26:29;;;;;;;;;;;;;;;;;;5066608;28;1241;-64
2021/03/24 14:29:13;;;;;;;;;;;;;;;;;;5068390;28;1378;-63
2021/03/24 14:31:58;;;;;;;;;;;;;;;;;;5065887;28;1977;-64
2021/03/24 14:34:29;;;;;;;;;;;;;;;;;;5067161;28;875;-63
2021/03/24 14:36:55;;;;;;;;;;;;;;;;;;5066517;28;1364;-64
2021/03/24 14:39:41;;;;;;;;;;;;;;;;;;5067142;28;850;-63
2021/03/24 14:42:10;;;;;;;;;;;;;;;;;;5070993;28;1411;-63
2021/03/24 14:44:43;;;;;;;;;;;;;;;;;;5069295;28;1164;-64
2021/03/24 14:47:31;;;;;;;;;;;;;;;;;;5070971;28;1339;-64
2021/03/24 14:50:06;;;;;;;;;;;;;;;;;;5069131;28;1368;-63
2021/03/24 14:52:55;;;;;;;;;;;;;;;;;;5070645;28;1971;-63
2021/03/24 14:55:30;;;;;;;;;;;;;;;;;;5054607;28;1348;-63
2021/03/24 14:57:56;;;;;;;;;;;;;;;;;;5069540;28;823;-63
2021/03/24 15:00:27;;;;;;;;;;;;;;;;;;5069919;28;1399;-65
2021/03/24 15:03:12;;;;;;;;;;;;;;;;;;5068910;28;898;-65
2021/03/24 15:05:44;;;;;;;;;;;;;;;;;;5069695;28;1360;-65
2021/03/24 15:08:14;;;;;;;;;;;;;;;;;;5071073;28;1395;-65
2021/03/24 15:10:51;;;;;;;;;;;;;;;;;;5071106;28;1901;-65
2021/03/24 15:13:22;;;;;;;;;;;;;;;;;;5069888;28;1352;-66
2021/03/24 15:15:55;;;;;;;;;;;;;;;;;;5069734;28;807;-67
2021/03/24 15:18:24;;;;;;;;;;;;;;;;;;5069210;28;1360;-67
2021/03/24 15:21:03;;;;;;;;;;;;;;;;;;5070103;28;811;-67
2021/03/24 15:23:31;;;;;;;;;;;;;;;;;;5069898;28;1407;-68
2021/03/24 15:26:08;;;;;;;;;;;;;;;;;;5070052;28;882;-67
2021/03/24 15:28:42;;;;;;;;;;;;;;;;;;5069553;28;1411;-67
2021/03/24 15:31:27;;;;;;;;;;;;;;;;;;5070748;28;1881;-68
2021/03/24 15:33:55;;;;;;;;;;;;;;;;;;5070051;28;827;-67
2021/03/24 15:36:26;;;;;;;;;;;;;;;;;;5069526;28;1351;-68
2021/03/24 15:38:54;;;;;;;;;;;;;;;;;;5069932;28;858;-68
2021/03/24 15:41:37;;;;;;;;;;;;;;;;;;5067898;28;1471;-64
2021/03/24 15:44:02;;;;;;;;;;;;;;;;;;5069699;28;918;-65
2021/03/24 15:46:30;;;;;;;;;;;;;;;;;;5069496;28;1435;-65
2021/03/24 15:49:01;;;;;;;;;;;;;;;;;;5068932;28;1355;-65
2021/03/24 15:51:29;;;;;;;;;;;;;;;;;;5068948;28;1961;-65
2021/03/24 15:53:56;;;;;;;;;;;;;;;;;;5073258;28;1223;-64
2021/03/24 15:56:40;;;;;;;;;;;;;;;;;;5069314;28;1352;-65
2021/03/24 15:59:14;;;;;;;;;;;;;;;;;;5072535;28;838;-65
2021/03/24 16:01:58;;;;;;;;;;;;;;;;;;5088277;28;1414;-64
2021/03/24 16:04:34;;;;;;;;;;;;;;;;;;5053241;28;1684;-64
2021/03/24 16:07:02;;;;;;;;;;;;;;;;;;5068550;28;1616;-65
2021/03/24 16:09:36;;;;;;;;;;;;;;;;;;5064572;28;835;-65
2021/03/24 16:12:02;;;;;;;;;;;;;;;;;;5051970;28;1967;-65
2021/03/24 16:14:42;;;;;;;;;;;;;;;;;;5069335;28;827;-65
2021/03/24 16:17:26;;;;;;;;;;;;;;;;;;5069585;28;1215;-71
2021/03/24 16:19:52;;;;;;;;;;;;;;;;;;5085212;28;1481;-66
2021/03/24 16:22:32;;;;;;;;;;;;;;;;;;5068734;28;827;-68
2021/03/24 16:25:13;;;;;;;;;;;;;;;;;;5071510;28;1235;-65
2021/03/24 16:27:44;;;;;;;;;;;;;;;;;;5089738;28;874;-65
2021/03/24 16:30:14;;;;;;;;;;;;;;;;;;5089673;28;1359;-65
2021/03/24 16:32:39;;;;;;;;;;;;;;;;;;5090213;28;1882;-65
2021/03/24 16:35:23;;;;;;;;;;;;;;;;;;5088345;28;1387;-65
2021/03/24 16:37:54;;;;;;;;;;;;;;;;;;5089125;28;858;-67
2021/03/24 16:40:38;;;;;;;;;;;;;;;;;;5088070;28;1544;-67
2021/03/24 16:43:22;;;;;;;;;;;;;;;;;;5088737;28;823;-67
2021/03/24 16:45:59;;;;;;;;;;;;;;;;;;5087193;28;1221;-66
2021/03/24 16:48:30;;;;;;;;;;;;;;;;;;5070401;28;915;-67
2021/03/24 16:51:14;;;;;;;;;;;;;;;;;;5087814;28;1917;-66
2021/03/24 16:53:52;;;;;;;;;;;;;;;;;;5089403;28;1070;-66
2021/03/24 16:56:24;;;;;;;;;;;;;;;;;;5086610;28;1339;-67
2021/03/24 16:58:58;;;;;;;;;;;;;;;;;;5068124;28;954;-66
2021/03/24 17:01:30;;;;;;;;;;;;;;;;;;5066677;28;1605;-67
2021/03/24 17:04:02;;;;;;;;;;;;;;;;;;5066951;28;973;-67
2021/03/24 17:06:36;;;;;;;;;;;;;;;;;;5067661;28;1434;-65
2021/03/24 17:09:13;;;;;;;;;;;;;;;;;;5066736;28;1175;-67
2021/03/24 17:11:54;;;;;;;;;;;;;;;;;;5068706;28;1965;-67
2021/03/24 17:14:42;;;;;;;;;;;;;;;;;;5067822;28;949;-68
2021/03/24 17:17:19;;;;;;;;;;;;;;;;;;5056266;28;1447;-68
2021/03/24 17:19:52;;;;;;;;;;;;;;;;;;5070495;28;1236;-68
2021/03/24 17:22:20;;;;;;;;;;;;;;;;;;5072898;28;1151;-70
2021/03/24 17:24:51;;;;;;;;;;;;;;;;;;5069234;28;1483;-70
2021/03/24 17:27:20;;;;;;;;;;;;;;;;;;5072511;28;1732;-70
2021/03/24 17:30:12;;;;;;;;;;;;;;;;;;5077284;28;1616;-70
2021/03/24 17:32:40;;;;;;;;;;;;;;;;;;5072443;28;1959;-71
2021/03/24 17:35:08;;;;;;;;;;;;;;;;;;5076551;28;1645;-71
2021/03/24 17:37:46;;;;;;;;;;;;;;;;;;5073581;28;1246;-72
2021/03/24 17:40:30;;;;;;;;;;;;;;;;;;5064601;28;1362;-72
2021/03/24 17:43:17;;;;;;;;;;;;;;;;;;5066895;28;1246;-70
2021/03/24 17:45:42;;;;;;;;;;;;;;;;;;5064387;28;1696;-67
2021/03/24 17:48:08;;;;;;;;;;;;;;;;;;5076799;28;1209;-71
2021/03/24 17:50:34;;;;;;;;;;;;;;;;;;5073158;28;1910;-69